Time;durP1;ratioP1;P1;durP2;ratioP2;P2;SDS_P1;SDS_P2;PMS_P1;PMS_P2;Temp;Humidity;BMP_temperature;BMP_pressure;BME280_temperature;BME280_humidity;BME280_pressure;Samples;Min_cycle;Max_cycle;Signal;HPM_P1;HPM_P2
2022/08/31 00:05:56;;;;;;;1.40;0.73;;;15.70;99.40;;;;;;5140531;27;20406;-75
2022/08/31 00:08:23;;;;;;;3.75;0.80;;;15.70;99.60;;;;;;5126090;27;20143;-75
2022/08/31 00:10:50;;;;;;;1.70;0.80;;;15.60;99.70;;;;;;5138686;27;20047;-75
2022/08/31 00:13:17;;;;;;;2.25;0.68;;;15.60;99.90;;;;;;5115421;28;20120;-75
2022/08/31 00:15:44;;;;;;;5.97;1.08;;;15.50;99.80;;;;;;5116040;28;20096;-74
2022/08/31 00:18:13;;;;;;;2.53;0.70;;;15.50;99.90;;;;;;5117149;28;20047;-74
2022/08/31 00:20:40;;;;;;;3.95;0.90;;;15.50;99.90;;;;;;5116694;28;20100;-74
2022/08/31 00:23:10;;;;;;;2.00;0.90;;;15.40;99.90;;;;;;5115059;28;20059;-75
2022/08/31 00:25:39;;;;;;;1.17;0.73;;;15.40;99.90;;;;;;5116666;28;20083;-75
2022/08/31 00:28:07;;;;;;;1.70;0.70;;;15.30;99.90;;;;;;5115447;28;20094;-75
2022/08/31 00:30:35;;;;;;;5.32;0.90;;;15.20;99.90;;;;;;5115993;28;20086;-74
2022/08/31 00:33:02;;;;;;;1.85;0.73;;;15.20;99.90;;;;;;5116464;28;20043;-75
2022/08/31 00:35:32;;;;;;;2.83;0.90;;;15.10;99.90;;;;;;5125352;27;20119;-74
2022/08/31 00:37:59;;;;;;;1.50;0.80;;;15.10;99.90;;;;;;5135666;27;20048;-73
2022/08/31 00:40:26;;;;;;;1.33;0.70;;;15.00;99.90;;;;;;5135879;27;20058;-72
2022/08/31 00:42:54;;;;;;;1.25;0.73;;;14.90;99.90;;;;;;5136729;27;20108;-74
2022/08/31 00:45:21;;;;;;;2.80;0.82;;;14.90;99.90;;;;;;5136595;27;20055;-74
2022/08/31 00:47:48;;;;;;;1.67;0.90;;;14.80;99.90;;;;;;5136353;27;20478;-73
2022/08/31 00:50:17;;;;;;;3.30;0.98;;;14.70;99.90;;;;;;5124581;27;20047;-74
2022/08/31 00:52:49;;;;;;;2.35;0.88;;;14.70;99.90;;;;;;5115561;28;20079;-73
2022/08/31 00:55:20;;;;;;;2.25;1.08;;;14.70;99.90;;;;;;5114999;28;20101;-75
2022/08/31 00:57:51;;;;;;;1.88;1.00;;;14.60;99.90;;;;;;5114279;28;20131;-75
2022/08/31 01:00:18;;;;;;;;;;;14.60;99.90;;;;;;5115822;28;20449;-75
2022/08/31 01:02:46;;;;;;;2.42;0.90;;;14.50;99.90;;;;;;5117012;27;19972;-75
2022/08/31 01:05:15;;;;;;;1.35;0.70;;;14.50;99.90;;;;;;5134271;27;20551;-75
2022/08/31 01:07:45;;;;;;;1.20;0.70;;;14.40;99.90;;;;;;5135351;27;20099;-75
2022/08/31 01:10:15;;;;;;;2.28;0.73;;;14.30;99.90;;;;;;5135786;27;20398;-75
2022/08/31 01:12:44;;;;;;;2.97;0.82;;;14.30;99.90;;;;;;5134633;27;20096;-74
2022/08/31 01:15:12;;;;;;;3.00;0.90;;;14.20;99.90;;;;;;5137656;27;20490;-74
2022/08/31 01:17:40;;;;;;;1.90;0.80;;;14.30;99.90;;;;;;5151704;27;20096;-74
2022/08/31 01:20:16;;;;;;;3.10;0.80;;;14.20;99.90;;;;;;5135770;27;20130;-74
2022/08/31 01:22:57;;;;;;;2.05;0.90;;;14.20;99.90;;;;;;5117758;27;20051;-75
2022/08/31 01:25:24;;;;;;;;;;;14.10;99.90;;;;;;5136413;27;20511;-74
2022/08/31 01:27:51;;;;;;;1.20;0.80;;;14.10;99.90;;;;;;5117775;27;19962;-75
2022/08/31 01:30:23;;;;;;;1.95;0.82;;;14.00;99.90;;;;;;5118214;27;20103;-76
2022/08/31 01:32:50;;;;;;;1.23;0.70;;;14.00;99.90;;;;;;5135217;27;20394;-76
2022/08/31 01:35:17;;;;;;;2.30;0.70;;;13.90;99.90;;;;;;5136012;27;20166;-74
2022/08/31 01:37:44;;;;;;;3.55;0.88;;;13.90;99.90;;;;;;5117729;27;20451;-74
2022/08/31 01:40:13;;;;;;;5.15;1.10;;;13.90;99.90;;;;;;5116975;27;20501;-74
2022/08/31 01:42:40;;;;;;;1.40;0.80;;;13.80;99.90;;;;;;5135669;27;20483;-74
2022/08/31 01:45:08;;;;;;;2.25;1.08;;;13.80;99.90;;;;;;5117726;27;20489;-74
2022/08/31 01:47:35;;;;;;;2.05;0.80;;;13.80;99.90;;;;;;5116981;27;20108;-75
2022/08/31 01:50:02;;;;;;;1.67;0.75;;;13.70;99.90;;;;;;5117849;27;20051;-74
2022/08/31 01:52:29;;;;;;;2.00;1.10;;;13.70;99.90;;;;;;5135441;27;20567;-74
2022/08/31 01:54:56;;;;;;;2.55;0.90;;;13.80;99.90;;;;;;5135724;27;20088;-76
2022/08/31 01:57:24;;;;;;;4.93;0.95;;;13.80;99.90;;;;;;5117516;27;20094;-76
2022/08/31 01:59:51;;;;;;;2.88;0.90;;;13.80;99.90;;;;;;5135267;27;20052;-75
2022/08/31 02:02:18;;;;;;;5.47;0.80;;;13.80;99.90;;;;;;5116701;27;20096;-75
2022/08/31 02:04:46;;;;;;;0.98;0.52;;;13.70;99.90;;;;;;5117261;27;20513;-76
2022/08/31 02:07:13;;;;;;;2.47;0.80;;;13.70;99.90;;;;;;5135582;27;20047;-76
2022/08/31 02:09:40;;;;;;;1.42;0.82;;;13.70;99.90;;;;;;5134758;27;20043;-75
2022/08/31 02:12:07;;;;;;;1.85;0.70;;;13.60;99.90;;;;;;5135243;27;20451;-75
2022/08/31 02:14:35;;;;;;;2.45;1.17;;;13.60;99.90;;;;;;5116543;27;20059;-76
2022/08/31 02:17:02;;;;;;;2.25;0.93;;;13.60;99.90;;;;;;5134736;27;20047;-75
2022/08/31 02:19:29;;;;;;;3.05;0.70;;;13.50;99.90;;;;;;5116862;27;20043;-76
2022/08/31 02:21:55;;;;;;;1.38;0.60;;;13.60;99.90;;;;;;5116436;27;20440;-75
2022/08/31 02:24:22;;;;;;;1.20;0.70;;;13.50;99.90;;;;;;5132180;27;20051;-75
2022/08/31 02:26:49;;;;;;;1.63;0.88;;;13.50;99.90;;;;;;5137294;27;20107;-76
2022/08/31 02:29:16;;;;;;;1.67;0.90;;;13.50;99.90;;;;;;5136571;27;20087;-75
2022/08/31 02:31:45;;;;;;;2.63;0.80;;;13.50;99.90;;;;;;5155389;27;20091;-75
2022/08/31 02:34:12;;;;;;;1.73;0.70;;;13.50;99.90;;;;;;5137063;27;20051;-74
2022/08/31 02:36:41;;;;;;;1.73;0.90;;;13.40;99.90;;;;;;5136073;27;20490;-75
2022/08/31 02:39:08;;;;;;;1.80;1.05;;;13.40;99.90;;;;;;5136867;27;20043;-75
2022/08/31 02:41:35;;;;;;;3.28;0.70;;;13.30;99.90;;;;;;5155621;27;20046;-76
2022/08/31 02:44:02;;;;;;;1.55;0.80;;;13.30;99.90;;;;;;5154894;27;20448;-75
2022/08/31 02:46:29;;;;;;;1.67;0.77;;;13.20;99.90;;;;;;5137017;27;20046;-76
2022/08/31 02:48:58;;;;;;;2.72;0.75;;;13.20;99.90;;;;;;5136657;27;20115;-75
2022/08/31 02:51:24;;;;;;;1.85;1.10;;;13.20;99.90;;;;;;5154845;27;20047;-76
2022/08/31 02:53:51;;;;;;;1.75;1.05;;;13.10;99.90;;;;;;5139380;27;20433;-76
2022/08/31 02:56:18;;;;;;;2.08;0.82;;;13.20;99.90;;;;;;5134455;27;20092;-76
2022/08/31 02:58:45;;;;;;;1.30;0.88;;;13.10;99.90;;;;;;5134166;27;20414;-76
2022/08/31 03:01:12;;;;;;;1.30;0.68;;;13.20;99.90;;;;;;5116092;27;20519;-74
2022/08/31 03:03:39;;;;;;;2.00;0.60;;;13.20;99.90;;;;;;5115879;27;20047;-75
2022/08/31 03:06:07;;;;;;;1.27;0.77;;;13.20;99.90;;;;;;5115430;27;20142;-75
2022/08/31 03:08:34;;;;;;;1.40;0.70;;;13.10;99.90;;;;;;5131070;27;20066;-75
2022/08/31 03:11:01;;;;;;;1.38;0.70;;;13.10;99.90;;;;;;5136331;27;20054;-76
2022/08/31 03:13:28;;;;;;;1.95;0.93;;;13.10;99.90;;;;;;5154144;27;20047;-76
2022/08/31 03:15:55;;;;;;;1.85;0.80;;;13.10;99.90;;;;;;5155156;27;20443;-74
2022/08/31 03:18:22;;;;;;;1.65;0.98;;;13.00;99.90;;;;;;5153736;27;20091;-75
2022/08/31 03:20:49;;;;;;;2.00;0.90;;;13.10;99.90;;;;;;5148190;27;20043;-75
2022/08/31 03:23:17;;;;;;;2.85;0.90;;;13.00;99.90;;;;;;5134081;27;20092;-76
2022/08/31 03:25:44;;;;;;;1.90;0.98;;;13.00;99.90;;;;;;5114972;27;20050;-74
2022/08/31 03:28:11;;;;;;;2.22;1.02;;;13.00;99.90;;;;;;5115722;27;20071;-75
2022/08/31 03:30:39;;;;;;;1.90;1.00;;;13.00;99.90;;;;;;5134320;27;20117;-76
2022/08/31 03:33:06;;;;;;;1.85;1.00;;;13.00;99.90;;;;;;5114714;28;20083;-76
2022/08/31 03:35:32;;;;;;;2.20;1.00;;;13.00;99.90;;;;;;5140107;27;20103;-75
2022/08/31 03:38:01;;;;;;;2.50;1.08;;;12.90;99.90;;;;;;5135481;27;20058;-75
2022/08/31 03:40:29;;;;;;;1.75;1.00;;;13.00;99.90;;;;;;5135855;27;20061;-76
2022/08/31 03:42:57;;;;;;;2.67;1.00;;;13.00;99.90;;;;;;5135788;27;20039;-77
2022/08/31 03:45:26;;;;;;;4.05;1.27;;;12.90;99.90;;;;;;5136107;27;20137;-76
2022/08/31 03:47:53;;;;;;;10.15;2.45;;;12.90;99.90;;;;;;5146916;27;20054;-77
2022/08/31 03:50:20;;;;;;;1.58;1.00;;;13.20;99.90;;;;;;5131917;27;20421;-76
2022/08/31 03:52:47;;;;;;;2.33;0.93;;;13.60;99.90;;;;;;5125881;27;20043;-75
2022/08/31 03:55:14;;;;;;;3.22;0.80;;;13.70;99.90;;;;;;5147966;27;20055;-75
2022/08/31 03:57:42;;;;;;;2.42;0.90;;;14.10;99.90;;;;;;5118895;27;20103;-75
2022/08/31 04:00:10;;;;;;;2.30;0.80;;;14.40;99.90;;;;;;5142446;27;20506;-75
2022/08/31 04:02:38;;;;;;;1.80;0.90;;;14.50;99.90;;;;;;5127111;27;20483;-76
2022/08/31 04:05:07;;;;;;;1.55;0.70;;;14.90;99.90;;;;;;5120766;27;20061;-74
2022/08/31 04:07:36;;;;;;;1.30;0.80;;;15.00;99.90;;;;;;5144920;27;20039;-76
2022/08/31 04:10:04;;;;;;;1.60;0.97;;;14.90;99.90;;;;;;5128528;27;20406;-76
2022/08/31 04:12:31;;;;;;;2.05;1.00;;;15.00;99.90;;;;;;5145013;27;20082;-76
2022/08/31 04:14:59;;;;;;;1.13;0.80;;;14.90;99.90;;;;;;5124427;27;20111;-76
2022/08/31 04:17:26;;;;;;;4.00;1.05;;;15.00;99.90;;;;;;5115821;27;20514;-76
2022/08/31 04:19:53;;;;;;;5.10;1.05;;;14.80;99.90;;;;;;5123375;27;20075;-76
2022/08/31 04:22:20;;;;;;;2.67;0.90;;;14.80;99.90;;;;;;5121171;28;20039;-76
2022/08/31 04:24:46;;;;;;;2.85;0.98;;;14.80;99.90;;;;;;5137815;27;20111;-75
2022/08/31 04:27:13;;;;;;;2.90;1.00;;;14.80;99.90;;;;;;5126323;27;20095;-74
2022/08/31 04:29:40;;;;;;;2.10;1.10;;;14.90;99.90;;;;;;5141922;27;20126;-74
2022/08/31 04:32:08;;;;;;;2.42;1.02;;;14.90;99.90;;;;;;5124476;27;20047;-75
2022/08/31 04:34:35;;;;;;;3.40;0.95;;;14.90;99.90;;;;;;5150906;27;20111;-75
2022/08/31 04:37:02;;;;;;;1.63;0.80;;;14.80;99.90;;;;;;5129208;27;20107;-75
2022/08/31 04:39:29;;;;;;;2.63;1.00;;;14.80;99.90;;;;;;5133463;27;20100;-73
2022/08/31 04:41:56;;;;;;;26.63;3.15;;;14.90;99.90;;;;;;5133847;27;20050;-76
2022/08/31 04:44:25;;;;;;;8.50;2.00;;;14.90;99.90;;;;;;5152049;27;20462;-76
2022/08/31 04:46:52;;;;;;;5.05;1.75;;;14.80;99.90;;;;;;5152678;27;20149;-76
2022/08/31 04:49:20;;;;;;;3.40;1.10;;;14.60;99.90;;;;;;5136893;27;20046;-78
2022/08/31 04:51:46;;;;;;;4.72;1.05;;;14.60;99.90;;;;;;5155025;27;20043;-77
2022/08/31 04:54:14;;;;;;;4.60;1.20;;;14.50;99.90;;;;;;5138561;27;20095;-74
2022/08/31 04:56:43;;;;;;;2.00;1.02;;;14.30;99.90;;;;;;5155024;27;20058;-73
2022/08/31 04:59:12;;;;;;;4.05;1.73;;;14.30;99.90;;;;;;5130142;27;20057;-74
2022/08/31 05:01:43;;;;;;;1.90;1.08;;;14.30;99.90;;;;;;5137436;27;20046;-73
2022/08/31 05:04:11;;;;;;;2.63;1.13;;;14.30;99.90;;;;;;5136689;27;20526;-74
2022/08/31 05:06:42;;;;;;;3.75;1.33;;;14.20;99.90;;;;;;5156336;27;20105;-74
2022/08/31 05:09:12;;;;;;;3.50;1.58;;;14.30;99.90;;;;;;5156313;27;20110;-76
2022/08/31 05:11:39;;;;;;;3.67;1.40;;;14.40;99.90;;;;;;5154030;27;20051;-77
2022/08/31 05:14:07;;;;;;;2.08;1.10;;;14.50;99.90;;;;;;5155212;27;20103;-74
2022/08/31 05:16:36;;;;;;;1.70;0.93;;;14.70;99.90;;;;;;5135136;27;20074;-75
2022/08/31 05:19:04;;;;;;;2.08;1.10;;;14.70;99.90;;;;;;5155165;27;20042;-74
2022/08/31 05:21:33;;;;;;;2.30;1.20;;;14.70;99.90;;;;;;5155655;27;20050;-75
2022/08/31 05:24:03;;;;;;;2.35;1.15;;;15.00;99.90;;;;;;5155919;27;20047;-78
2022/08/31 05:26:32;;;;;;;2.95;1.08;;;15.00;99.90;;;;;;5135742;27;20099;-74
2022/08/31 05:29:01;;;;;;;6.55;1.40;;;15.10;99.90;;;;;;5155152;27;20091;-73
2022/08/31 05:31:28;;;;;;;3.35;1.10;;;15.00;99.90;;;;;;5155270;27;20462;-75
2022/08/31 05:33:56;;;;;;;3.95;1.52;;;15.20;99.90;;;;;;5155045;27;20042;-76
2022/08/31 05:36:23;;;;;;;2.10;1.27;;;15.30;99.90;;;;;;5136472;27;20058;-73
2022/08/31 05:38:52;;;;;;;2.28;1.20;;;15.30;99.90;;;;;;5135866;27;20057;-74
2022/08/31 05:41:21;;;;;;;4.28;1.35;;;15.30;99.90;;;;;;5156280;27;20058;-75
2022/08/31 05:43:48;;;;;;;3.15;1.38;;;15.00;99.90;;;;;;5119966;27;20050;-75
2022/08/31 05:46:16;;;;;;;1.83;1.20;;;14.80;99.90;;;;;;5136687;27;20043;-75
2022/08/31 05:48:44;;;;;;;4.28;1.33;;;14.70;99.90;;;;;;5144811;27;20088;-74
2022/08/31 05:51:12;;;;;;;5.40;1.25;;;14.50;99.90;;;;;;5138556;27;20119;-74
2022/08/31 05:53:40;;;;;;;6.65;1.50;;;14.50;99.90;;;;;;5133925;27;20038;-74
2022/08/31 05:56:09;;;;;;;2.85;1.13;;;14.30;99.90;;;;;;5156538;27;20046;-75
2022/08/31 05:58:39;;;;;;;1.98;1.10;;;14.30;99.90;;;;;;5156208;27;20068;-74
2022/08/31 06:01:13;;;;;;;2.00;1.10;;;14.30;99.90;;;;;;5146224;27;20046;-74
2022/08/31 06:03:40;;;;;;;2.10;1.35;;;14.20;99.90;;;;;;5116776;27;20039;-74
2022/08/31 06:06:08;;;;;;;2.55;1.10;;;14.20;99.90;;;;;;5116708;27;20044;-75
2022/08/31 06:08:35;;;;;;;3.65;1.38;;;14.30;99.90;;;;;;5116282;27;20130;-75
2022/08/31 06:11:02;;;;;;;2.28;1.10;;;14.30;99.90;;;;;;5135521;27;20043;-74
2022/08/31 06:13:29;;;;;;;3.08;1.40;;;14.40;99.90;;;;;;5134687;27;20107;-73
2022/08/31 06:16:01;;;;;;;2.40;1.13;;;14.40;99.90;;;;;;5134856;27;20111;-76
2022/08/31 06:18:28;;;;;;;2.33;1.27;;;14.60;99.90;;;;;;5128382;27;20129;-76
2022/08/31 06:21:02;;;;;;;2.80;1.30;;;14.70;99.90;;;;;;5137439;27;20056;-76
2022/08/31 06:23:29;;;;;;;4.38;1.40;;;15.30;99.90;;;;;;5117990;27;20490;-76
2022/08/31 06:26:05;;;;;;;2.55;1.20;;;16.30;99.90;;;;;;5148186;27;20098;-75
2022/08/31 06:28:32;;;;;;;2.67;1.27;;;17.40;99.90;;;;;;5136455;27;20088;-75
2022/08/31 06:31:10;;;;;;;2.63;1.10;;;18.50;99.90;;;;;;5155842;27;20051;-75
2022/08/31 06:33:38;;;;;;;4.22;1.10;;;19.20;99.90;;;;;;5136567;27;20130;-75
2022/08/31 06:36:10;;;;;;;8.27;1.77;;;20.10;99.90;;;;;;5136194;27;20054;-76
2022/08/31 06:38:37;;;;;;;7.00;1.20;;;20.80;97.90;;;;;;5155485;27;20157;-76
2022/08/31 06:41:11;;;;;;;2.03;1.25;;;21.40;97.40;;;;;;5136268;27;20065;-76
2022/08/31 06:43:38;;;;;;;2.13;1.05;;;22.00;95.70;;;;;;5154545;27;20470;-75
2022/08/31 06:46:07;;;;;;;2.60;1.00;;;22.60;94.80;;;;;;5136856;27;20059;-75
2022/08/31 06:48:34;;;;;;;1.92;1.02;;;23.00;92.80;;;;;;5136220;27;20043;-76
2022/08/31 06:51:01;;;;;;;2.33;0.82;;;23.50;92.50;;;;;;5136537;27;20085;-75
2022/08/31 06:53:28;;;;;;;8.65;1.10;;;23.80;91.30;;;;;;5132460;27;20043;-75
2022/08/31 06:55:55;;;;;;;3.45;0.90;;;24.40;90.80;;;;;;5155132;27;20069;-75
2022/08/31 06:58:22;;;;;;;6.78;1.17;;;24.60;89.10;;;;;;5136251;27;20098;-75
2022/08/31 07:00:49;;;;;;;8.70;1.45;;;25.00;88.10;;;;;;5154907;27;20050;-76
2022/08/31 07:03:23;;;;;;;2.15;0.70;;;25.10;86.80;;;;;;5154767;27;20047;-75
2022/08/31 07:05:52;;;;;;;3.47;1.15;;;25.10;83.20;;;;;;5135953;27;20099;-76
2022/08/31 07:08:19;;;;;;;2.60;0.70;;;25.50;83.40;;;;;;5135860;27;20444;-76
2022/08/31 07:10:46;;;;;;;4.78;0.70;;;25.70;83.80;;;;;;5154097;27;20456;-76
2022/08/31 07:13:13;;;;;;;2.00;1.10;;;25.90;82.80;;;;;;5149485;27;20103;-75
2022/08/31 07:15:40;;;;;;;1.40;0.70;;;26.30;82.10;;;;;;5127041;27;20093;-75
2022/08/31 07:18:07;;;;;;;2.67;0.77;;;26.50;81.10;;;;;;5124654;27;20047;-75
2022/08/31 07:20:35;;;;;;;4.72;1.20;;;27.00;80.80;;;;;;5136515;27;20495;-75
2022/08/31 07:23:02;;;;;;;1.88;0.82;;;27.20;79.10;;;;;;5136915;27;20498;-75
2022/08/31 07:25:29;;;;;;;3.30;0.80;;;27.20;77.80;;;;;;5124103;27;20208;-76
2022/08/31 07:27:58;;;;;;;1.83;0.70;;;27.30;77.40;;;;;;5154848;27;20402;-74
2022/08/31 07:30:25;;;;;;;1.70;0.70;;;27.50;76.70;;;;;;5139473;27;20051;-75
2022/08/31 07:32:52;;;;;;;1.80;0.65;;;27.90;76.30;;;;;;5115089;27;20051;-75
2022/08/31 07:35:19;;;;;;;1.70;0.65;;;27.90;76.40;;;;;;5133892;28;20447;-75
2022/08/31 07:43:16;;;;;;;1.27;0.60;;;28.50;74.40;;;;;;5133738;28;20095;-75
2022/08/31 07:45:43;;;;;;;2.30;0.52;;;28.30;73.00;;;;;;5131809;28;20431;-75
2022/08/31 07:48:10;;;;;;;2.03;0.52;;;28.40;71.80;;;;;;5131038;27;20090;-75
2022/08/31 07:50:43;;;;;;;1.90;0.60;;;28.40;71.40;;;;;;5134264;27;20451;-74
2022/08/31 07:53:13;;;;;;;2.50;0.50;;;28.40;70.80;;;;;;5131010;27;20082;-74
2022/08/31 07:55:40;;;;;;;2.45;0.50;;;28.50;70.10;;;;;;5127607;28;20051;-75
2022/08/31 07:58:14;;;;;;;1.88;0.60;;;28.20;69.80;;;;;;5115246;28;20051;-74
2022/08/31 08:00:42;;;;;;;1.55;0.60;;;28.40;69.40;;;;;;5132895;28;20502;-75
2022/08/31 08:03:10;;;;;;;0.80;0.50;;;28.20;70.00;;;;;;5133457;28;20048;-75
2022/08/31 08:05:40;;;;;;;4.65;0.70;;;28.20;68.90;;;;;;5114561;28;20047;-75
2022/08/31 08:08:08;;;;;;;1.35;0.60;;;28.20;68.90;;;;;;5133221;27;20043;-74
2022/08/31 08:10:39;;;;;;;2.55;0.50;;;28.40;68.20;;;;;;5119402;27;20046;-75
2022/08/31 08:13:06;;;;;;;1.80;0.45;;;28.50;68.90;;;;;;5135502;27;20103;-75
2022/08/31 08:15:36;;;;;;;2.80;0.60;;;28.60;68.60;;;;;;5133083;27;20046;-75
2022/08/31 08:18:03;;;;;;;3.72;0.60;;;29.10;68.60;;;;;;5135231;27;20046;-75
2022/08/31 08:20:30;;;;;;;2.20;0.60;;;29.40;68.00;;;;;;5121049;28;20092;-75
2022/08/31 08:22:57;;;;;;;1.92;0.70;;;29.70;67.50;;;;;;5133143;27;20050;-74
2022/08/31 08:25:24;;;;;;;1.55;0.60;;;29.50;66.90;;;;;;5133267;27;20047;-75
2022/08/31 08:27:55;;;;;;;2.65;0.63;;;29.30;66.60;;;;;;5136521;27;20082;-75
2022/08/31 08:30:22;;;;;;;1.40;0.57;;;29.90;66.20;;;;;;5137113;27;20444;-75
2022/08/31 08:32:49;;;;;;;1.52;0.60;;;29.70;66.60;;;;;;5136708;27;20551;-74
2022/08/31 08:35:16;;;;;;;2.65;0.80;;;29.80;66.80;;;;;;5119103;27;20526;-74
2022/08/31 08:37:46;;;;;;;1.95;0.50;;;29.90;66.60;;;;;;5145909;27;20381;-75
2022/08/31 08:40:32;;;;;;;2.08;0.80;;;29.80;66.10;;;;;;5155254;27;20101;-73
2022/08/31 08:43:01;;;;;;;2.53;0.80;;;30.10;65.50;;;;;;5140467;27;20088;-74
2022/08/31 08:45:28;;;;;;;2.17;0.70;;;30.10;65.90;;;;;;5118637;27;20390;-74
2022/08/31 08:47:56;;;;;;;2.33;0.50;;;30.30;65.70;;;;;;5136526;27;20471;-74
2022/08/31 08:50:25;;;;;;;2.28;0.70;;;30.30;65.30;;;;;;5125019;27;20379;-73
2022/08/31 08:52:54;;;;;;;1.73;0.70;;;29.90;64.20;;;;;;5139744;27;20095;-74
2022/08/31 08:55:26;;;;;;;0.80;0.43;;;29.30;65.60;;;;;;5136277;27;20494;-73
2022/08/31 08:57:54;;;;;;;1.65;0.73;;;29.30;66.10;;;;;;5130181;27;20047;-74
2022/08/31 09:00:27;;;;;;;4.85;0.88;;;28.90;65.50;;;;;;5132738;27;20099;-74
2022/08/31 09:02:59;;;;;;;1.88;0.50;;;29.30;66.40;;;;;;5145593;27;20565;-73
2022/08/31 09:05:48;;;;;;;2.00;0.50;;;28.60;65.90;;;;;;5138830;27;20050;-74
2022/08/31 09:08:33;;;;;;;1.20;0.50;;;28.40;66.00;;;;;;5157137;27;20099;-73
2022/08/31 09:11:16;;;;;;;2.47;0.50;;;28.30;66.80;;;;;;5138357;27;20443;-74
2022/08/31 09:13:56;;;;;;;2.42;0.50;;;27.70;67.40;;;;;;5156745;27;20486;-74
2022/08/31 09:16:39;;;;;;;2.78;0.80;;;27.90;67.50;;;;;;5156794;27;20488;-74
2022/08/31 09:19:09;;;;;;;3.95;0.80;;;28.90;66.30;;;;;;5137413;27;20055;-74
2022/08/31 09:21:42;;;;;;;3.63;0.63;;;28.50;66.70;;;;;;5156780;27;20051;-74
2022/08/31 09:24:11;;;;;;;5.65;0.70;;;29.20;66.30;;;;;;5138113;27;20405;-73
2022/08/31 09:27:00;;;;;;;3.08;0.98;;;29.40;65.50;;;;;;5138373;27;20049;-74
2022/08/31 09:29:30;;;;;;;2.28;0.73;;;29.00;65.50;;;;;;5129934;27;20055;-74
2022/08/31 09:32:05;;;;;;;1.77;0.70;;;28.00;66.70;;;;;;5135386;27;20559;-74
2022/08/31 09:34:36;;;;;;;2.00;0.70;;;27.00;67.60;;;;;;5136691;27;20047;-74
2022/08/31 09:37:15;;;;;;;1.30;0.50;;;26.90;68.80;;;;;;5146248;27;20082;-74
2022/08/31 09:39:46;;;;;;;3.38;0.70;;;26.60;67.80;;;;;;5137425;27;20054;-73
2022/08/31 09:42:20;;;;;;;2.83;0.82;;;26.80;69.10;;;;;;5138064;27;20568;-74
2022/08/31 09:44:49;;;;;;;2.63;0.60;;;27.30;68.90;;;;;;5135903;27;20051;-74
2022/08/31 09:50:10;;;;;;;3.35;0.73;;;27.40;68.30;;;;;;5150731;27;1241977;-74
2022/08/31 09:55:26;;;;;;;2.17;0.57;;;30.30;66.20;;;;;;5146278;27;20047;-73
2022/08/31 09:57:57;;;;;;;2.70;0.75;;;30.50;64.20;;;;;;5152549;27;20054;-74
2022/08/31 10:00:33;;;;;;;2.25;0.70;;;30.40;63.50;;;;;;5151151;27;20053;-73
2022/08/31 10:03:12;;;;;;;2.75;0.68;;;29.50;64.20;;;;;;5151825;27;20129;-73
2022/08/31 10:05:43;;;;;;;4.78;0.90;;;28.60;66.00;;;;;;5150670;27;20443;-77
2022/08/31 10:08:28;;;;;;;5.10;0.90;;;27.90;67.00;;;;;;5133307;27;20039;-76
2022/08/31 10:10:57;;;;;;;1.13;0.57;;;27.70;67.80;;;;;;5133783;27;20047;-75
2022/08/31 10:13:33;;;;;;;2.83;0.80;;;28.20;67.90;;;;;;5132488;27;20482;-76
2022/08/31 10:16:10;;;;;;;3.35;0.50;;;29.20;66.30;;;;;;5150106;27;20479;-72
2022/08/31 10:18:45;;;;;;;3.33;0.68;;;30.30;64.50;;;;;;5136215;27;20508;-74
2022/08/31 10:21:20;;;;;;;2.42;0.70;;;31.50;63.60;;;;;;5163871;27;20147;-73
2022/08/31 10:23:55;;;;;;;1.25;0.60;;;31.60;62.40;;;;;;5150735;27;20058;-74
2022/08/31 10:26:30;;;;;;;1.30;0.50;;;31.40;61.10;;;;;;5147269;27;20059;-75
2022/08/31 10:29:00;;;;;;;3.17;0.57;;;31.60;61.10;;;;;;5163641;27;20043;-74
2022/08/31 10:31:32;;;;;;;0.85;0.40;;;32.10;61.50;;;;;;5156237;27;20042;-73
2022/08/31 10:36:55;;;;;;;3.67;0.90;;;32.50;58.90;;;;;;5149792;27;20100;-74
2022/08/31 10:39:32;;;;;;;2.65;0.60;;;32.40;59.00;;;;;;5150009;27;20069;-73
2022/08/31 10:42:04;;;;;;;4.43;1.10;;;32.20;58.70;;;;;;5156422;27;20047;-74
2022/08/31 10:44:38;;;;;;;1.00;0.50;;;32.30;60.40;;;;;;5138489;27;20138;-73
2022/08/31 10:47:05;;;;;;;5.57;0.90;;;32.10;58.80;;;;;;5171166;27;20056;-74
2022/08/31 10:49:34;;;;;;;3.15;0.50;;;31.70;59.50;;;;;;5153154;27;20123;-74
2022/08/31 10:52:09;;;;;;;1.33;0.50;;;31.70;60.30;;;;;;5141565;27;20054;-74
2022/08/31 10:54:43;;;;;;;6.10;0.77;;;31.90;59.90;;;;;;5131817;27;20108;-73
2022/08/31 10:57:30;;;;;;;2.08;0.60;;;32.30;59.50;;;;;;5148388;27;20461;-74
2022/08/31 11:00:03;;;;;;;0.85;0.40;;;33.00;59.10;;;;;;5144911;27;20054;-74
2022/08/31 11:02:39;;;;;;;5.35;0.77;;;32.80;59.30;;;;;;5135509;27;20047;-73
2022/08/31 11:05:29;;;;;;;2.35;0.60;;;32.90;60.30;;;;;;5136331;27;20529;-74
2022/08/31 11:08:11;;;;;;;3.70;0.70;;;33.00;59.80;;;;;;5141522;27;20038;-74
2022/08/31 11:10:46;;;;;;;2.10;0.43;;;32.90;60.40;;;;;;5156924;27;20082;-73
2022/08/31 11:13:26;;;;;;;1.85;0.60;;;33.20;59.60;;;;;;5138695;27;20081;-74
2022/08/31 11:16:08;;;;;;;1.02;0.50;;;33.50;58.00;;;;;;5138655;27;20051;-75
2022/08/31 11:18:57;;;;;;;3.47;1.00;;;33.40;58.10;;;;;;5137708;27;20054;-74
2022/08/31 11:21:37;;;;;;;;;;;33.70;57.80;;;;;;5132197;27;20099;-74
2022/08/31 11:24:27;;;;;;;3.42;0.52;;;33.80;57.70;;;;;;5135075;27;19955;-75
2022/08/31 11:27:04;;;;;;;2.97;0.70;;;33.80;57.50;;;;;;5117904;27;20043;-75
2022/08/31 11:29:42;;;;;;;3.10;0.50;;;33.40;56.50;;;;;;5117653;27;20074;-75
2022/08/31 11:32:17;;;;;;;1.47;0.57;;;33.40;57.40;;;;;;5116931;27;20047;-75
2022/08/31 11:34:49;;;;;;;1.17;0.50;;;33.30;56.30;;;;;;5136055;27;20553;-75
2022/08/31 11:37:51;;;;;;;3.63;0.60;;;33.20;56.40;;;;;;5117633;27;20086;-76
2022/08/31 11:40:51;;;;;;;1.60;0.50;;;33.40;55.90;;;;;;5136010;27;20043;-75
2022/08/31 11:43:52;;;;;;;4.05;0.47;;;33.40;55.00;;;;;;5135813;27;20159;-75
2022/08/31 11:47:08;;;;;;;1.23;0.40;;;33.40;55.80;;;;;;5116941;27;20099;-75
2022/08/31 11:49:48;;;;;;;1.10;0.45;;;33.10;56.40;;;;;;5138429;27;20107;-75
2022/08/31 11:52:41;;;;;;;4.63;0.57;;;33.40;57.30;;;;;;5124929;27;20058;-74
2022/08/31 11:55:19;;;;;;;1.33;0.35;;;33.30;55.70;;;;;;5118179;27;20129;-75
2022/08/31 11:58:10;;;;;;;1.85;0.47;;;33.40;56.30;;;;;;5117074;27;20043;-75
2022/08/31 12:00:48;;;;;;;3.72;0.52;;;33.00;56.60;;;;;;5135220;27;20043;-75
2022/08/31 12:03:38;;;;;;;2.10;0.60;;;33.20;56.40;;;;;;5120947;27;20055;-75
2022/08/31 12:06:10;;;;;;;1.42;0.70;;;32.80;55.50;;;;;;5137372;27;20078;-74
2022/08/31 12:08:51;;;;;;;1.13;0.60;;;32.80;56.70;;;;;;5153910;27;20449;-75
2022/08/31 12:11:28;;;;;;;3.60;0.55;;;32.50;56.80;;;;;;5116402;28;20116;-76
2022/08/31 12:14:00;;;;;;;2.10;0.40;;;32.90;57.00;;;;;;5134618;27;20051;-75
2022/08/31 12:16:42;;;;;;;1.48;0.50;;;33.00;56.80;;;;;;5135649;27;20066;-75
2022/08/31 12:25:33;;;;;;;2.33;0.52;;;33.40;55.70;;;;;;5117804;27;20055;-74
2022/08/31 12:28:10;;;;;;;1.40;0.57;;;33.30;55.80;;;;;;5116127;27;20044;-74
2022/08/31 12:30:48;;;;;;;1.52;0.60;;;33.30;56.10;;;;;;5134910;27;20096;-75
2022/08/31 12:33:18;;;;;;;0.75;0.40;;;33.20;55.60;;;;;;5134692;27;20069;-73
2022/08/31 12:35:48;;;;;;;1.85;0.60;;;33.50;56.40;;;;;;5116315;27;20477;-74
2022/08/31 12:38:20;;;;;;;0.80;0.40;;;33.20;56.30;;;;;;5149014;27;20039;-74
2022/08/31 12:40:50;;;;;;;3.63;0.40;;;33.40;55.50;;;;;;5155558;27;20508;-74
2022/08/31 12:43:19;;;;;;;0.93;0.32;;;33.40;55.20;;;;;;5136437;27;20090;-74
2022/08/31 12:46:03;;;;;;;;;;;33.20;54.70;;;;;;5155554;27;20528;-74
2022/08/31 12:48:53;;;;;;;1.92;0.63;;;33.40;54.90;;;;;;5135244;27;19923;-74
2022/08/31 12:51:36;;;;;;;1.00;0.40;;;33.60;55.00;;;;;;5115409;27;20047;-74
2022/08/31 12:54:38;;;;;;;1.67;0.40;;;33.40;54.90;;;;;;5136175;27;20053;-75
2022/08/31 12:57:18;;;;;;;1.60;0.52;;;33.40;55.40;;;;;;5115733;27;20104;-75
2022/08/31 12:59:53;;;;;;;1.38;0.50;;;33.30;54.40;;;;;;5115639;27;20085;-74
2022/08/31 13:02:20;;;;;;;1.63;0.40;;;33.50;54.60;;;;;;5115177;27;20108;-75
2022/08/31 13:04:48;;;;;;;2.72;0.57;;;33.80;54.70;;;;;;5116554;27;20448;-74
2022/08/31 13:07:20;;;;;;;2.78;0.50;;;34.20;54.90;;;;;;5134274;27;20128;-74
2022/08/31 13:10:01;;;;;;;2.30;0.47;;;33.90;54.10;;;;;;5115038;27;20049;-74
2022/08/31 13:12:29;;;;;;;2.90;0.60;;;33.70;54.30;;;;;;5134005;27;20475;-75
2022/08/31 13:14:56;;;;;;;2.30;0.70;;;34.00;54.60;;;;;;5134282;27;20043;-74
2022/08/31 13:17:22;;;;;;;4.53;0.80;;;34.20;55.00;;;;;;5134101;27;20051;-74
2022/08/31 13:19:52;;;;;;;2.65;0.70;;;34.20;55.70;;;;;;5136093;27;20134;-74
2022/08/31 13:22:27;;;;;;;3.70;0.90;;;34.40;56.10;;;;;;5128158;27;20099;-74
2022/08/31 13:24:56;;;;;;;3.88;0.95;;;34.30;57.10;;;;;;5135549;27;20130;-75
2022/08/31 13:27:25;;;;;;;7.32;0.80;;;34.20;56.50;;;;;;5127813;27;20046;-74
2022/08/31 13:30:10;;;;;;;4.03;0.70;;;34.30;56.80;;;;;;5131757;27;20039;-74
2022/08/31 13:32:39;;;;;;;3.05;0.70;;;33.60;56.50;;;;;;5115013;28;20054;-73